Morris, Canada
Current Conditions -  °F | °C
As of 2:00 PM on Tuesday 25 Nov 2014 (Local Time) from CYWG Reporting Station
Light Snow Light Snow  
Wind Chill: -5°   Ceiling: 1400
Heat Index: 10°   Visibility: 2mi
Dew Point:   Wind: 13mph
Humidity: 79%   Direction: 30°NNE
Pressure: 30.01"   Gusts: NA
Location:  49.35°N, 97.37°W
Report Text: CYWG 252000Z 03011KT 2SM -SN OVC014 M12/M15 A3001 RMK SC8 SLP183
Loading
Personal Weather Stations






























Interactive Weather Map New forecast layout! Learn more

10-Day Weather Forecast

Advertisements
Track Severe Weather on mobile